createdAt,value
2018-11-07T00:00:19.346Z,15.83
2018-11-07T00:03:23.572Z,16.63
2018-11-07T00:06:27.677Z,18.40
2018-11-07T00:09:31.769Z,15.77
2018-11-07T00:12:35.821Z,25.80
2018-11-07T00:15:39.701Z,24.83
2018-11-07T00:18:43.663Z,25.23
2018-11-07T00:21:47.944Z,28.37
2018-11-07T00:24:51.874Z,28.10
2018-11-07T00:27:55.904Z,29.03
2018-11-07T00:30:59.837Z,26.47
2018-11-07T00:34:04.019Z,27.57
2018-11-07T00:37:07.981Z,32.13
2018-11-07T00:40:12.704Z,37.97
2018-11-07T00:43:16.621Z,33.67
2018-11-07T00:46:20.542Z,42.23
2018-11-07T00:49:24.516Z,42.63
2018-11-07T00:52:28.864Z,40.90
2018-11-07T00:55:32.753Z,51.73
2018-11-07T00:58:36.881Z,54.97
2018-11-07T01:01:40.891Z,54.97
2018-11-07T01:04:44.889Z,66.70
2018-11-07T01:07:49.202Z,49.73
2018-11-07T01:10:53.271Z,50.13
2018-11-07T01:13:58.398Z,60.93
2018-11-07T01:17:02.503Z,45.67
2018-11-07T01:20:07.812Z,40.90
2018-11-07T01:23:11.738Z,166.63
2018-11-07T01:26:16.067Z,50.97
2018-11-07T01:29:20.092Z,62.23
2018-11-07T01:32:24.301Z,50.93
2018-11-07T01:35:28.256Z,42.00
2018-11-07T01:38:32.426Z,46.37
2018-11-07T01:41:36.556Z,36.70
2018-11-07T01:44:40.772Z,24.83
2018-11-07T01:47:44.761Z,46.47
2018-11-07T01:50:48.699Z,32.47
2018-11-07T01:53:52.782Z,42.10
2018-11-07T01:56:56.742Z,40.33
2018-11-07T02:00:00.734Z,43.70
2018-11-07T02:03:04.806Z,44.50
2018-11-07T02:06:08.879Z,39.27
2018-11-07T02:09:12.839Z,54.77
2018-11-07T02:12:16.889Z,46.87
2018-11-07T02:15:20.944Z,55.07
2018-11-07T02:18:25.042Z,56.10
2018-11-07T02:21:29.089Z,43.73
2018-11-07T02:24:33.077Z,47.40
2018-11-07T02:27:37.090Z,49.63
2018-11-07T02:30:41.207Z,46.73
2018-11-07T02:33:45.140Z,45.77
2018-11-07T02:36:49.244Z,47.90
2018-11-07T02:39:53.365Z,46.43
2018-11-07T02:42:57.333Z,46.50
2018-11-07T02:46:01.348Z,52.70
2018-11-07T02:49:05.574Z,52.10
2018-11-07T02:52:09.481Z,48.47
2018-11-07T02:55:13.496Z,51.30
2018-11-07T02:58:17.554Z,128.80
2018-11-07T03:01:21.669Z,46.37
2018-11-07T03:04:25.533Z,45.03
2018-11-07T03:07:29.466Z,39.67
2018-11-07T03:10:33.583Z,42.73
2018-11-07T03:13:37.615Z,43.60
2018-11-07T03:16:41.714Z,39.60
2018-11-07T03:19:45.753Z,40.17
2018-11-07T03:22:49.764Z,44.30
2018-11-07T03:25:53.657Z,54.33
2018-11-07T03:28:57.696Z,46.00
2018-11-07T03:32:01.663Z,41.10
2018-11-07T03:35:05.994Z,51.90
2018-11-07T03:38:10.086Z,50.03
2018-11-07T03:41:14.083Z,52.50
2018-11-07T03:44:18.159Z,50.00
2018-11-07T03:47:22.134Z,44.73
2018-11-07T03:50:26.376Z,43.83
2018-11-07T03:53:30.573Z,103.63
2018-11-07T03:56:34.451Z,52.90
2018-11-07T03:59:38.392Z,50.23
2018-11-07T04:02:42.379Z,48.03
2018-11-07T04:05:46.341Z,48.80
2018-11-07T04:08:50.300Z,56.70
2018-11-07T04:11:54.106Z,51.50
2018-11-07T04:14:58.032Z,50.77
2018-11-07T04:18:01.923Z,48.13
2018-11-07T04:21:05.799Z,49.17
2018-11-07T04:24:09.709Z,51.67
2018-11-07T04:27:13.787Z,46.43
2018-11-07T04:30:17.610Z,46.43
2018-11-07T04:33:21.519Z,50.00
2018-11-07T04:36:25.930Z,60.87
2018-11-07T04:39:29.837Z,50.87
2018-11-07T04:42:33.765Z,48.77
2018-11-07T04:45:37.698Z,48.23
2018-11-07T04:48:41.822Z,57.50
2018-11-07T04:51:45.728Z,45.10
2018-11-07T04:54:49.631Z,41.80
2018-11-07T04:57:53.630Z,53.30
2018-11-07T05:00:57.574Z,47.43
2018-11-07T05:04:04.420Z,50.70
2018-11-07T05:07:08.329Z,52.43
2018-11-07T05:10:12.886Z,47.47
2018-11-07T05:13:16.900Z,163.30
2018-11-07T05:16:20.789Z,44.63
2018-11-07T05:19:24.651Z,41.43
2018-11-07T05:22:28.743Z,33.93
2018-11-07T05:25:32.664Z,37.57
2018-11-07T05:28:36.574Z,33.90
2018-11-07T05:31:40.463Z,28.43
2018-11-07T05:34:45.635Z,31.33
2018-11-07T05:37:49.548Z,53.53
2018-11-07T05:40:53.374Z,30.23
2018-11-07T05:43:57.256Z,35.37
2018-11-07T05:47:01.114Z,53.87
2018-11-07T05:50:05.853Z,36.67
2018-11-07T05:53:09.731Z,31.40
2018-11-07T05:56:13.701Z,42.33
2018-11-07T05:59:17.718Z,39.33
2018-11-07T06:02:21.907Z,36.63
2018-11-07T06:05:25.851Z,36.67
2018-11-07T06:08:29.663Z,36.70
2018-11-07T06:11:33.521Z,36.83
2018-11-07T06:14:37.345Z,38.87
2018-11-07T06:17:41.291Z,33.73
2018-11-07T06:20:45.250Z,36.37
2018-11-07T06:23:49.101Z,32.67
2018-11-07T06:26:52.958Z,149.77
2018-11-07T06:29:56.863Z,35.40
2018-11-07T06:33:00.606Z,37.43
2018-11-07T06:36:04.590Z,34.87
2018-11-07T06:39:10.222Z,36.93
2018-11-07T06:42:14.173Z,38.27
2018-11-07T06:45:17.955Z,40.57
2018-11-07T06:48:21.864Z,81.43
2018-11-07T06:51:25.771Z,48.30
2018-11-07T06:54:29.618Z,36.83
2018-11-07T06:57:33.570Z,43.50
2018-11-07T07:00:37.368Z,41.37
2018-11-07T07:03:41.341Z,40.93
2018-11-07T07:06:45.225Z,40.33
2018-11-07T07:09:49.156Z,37.97
2018-11-07T07:12:53.056Z,152.73
2018-11-07T07:15:56.988Z,39.53
2018-11-07T07:19:00.992Z,36.63
2018-11-07T07:22:05.257Z,38.87
2018-11-07T07:25:10.146Z,33.27
2018-11-07T07:28:14.066Z,33.80
2018-11-07T07:31:17.971Z,40.77
2018-11-07T07:34:21.883Z,33.00
2018-11-07T07:37:25.749Z,34.93
2018-11-07T07:40:29.716Z,36.90
2018-11-07T07:43:33.568Z,40.57
2018-11-07T07:46:37.432Z,41.30
2018-11-07T07:49:41.380Z,50.73
2018-11-07T07:52:46.186Z,241.47
2018-11-07T07:55:50.218Z,293.33
2018-11-07T07:58:54.253Z,126.90
2018-11-07T08:01:58.333Z,203.00
2018-11-07T08:05:02.224Z,146.47
2018-11-07T08:08:06.636Z,159.43
2018-11-07T08:11:10.557Z,121.63
2018-11-07T08:14:14.529Z,76.37
2018-11-07T08:17:18.418Z,121.17
2018-11-07T08:20:22.421Z,141.53
2018-11-07T08:23:26.284Z,127.70
2018-11-07T08:26:30.247Z,87.07
2018-11-07T08:29:34.176Z,90.20
2018-11-07T08:32:38.213Z,88.57
2018-11-07T08:35:42.206Z,85.40
2018-11-07T08:38:46.295Z,85.03
2018-11-07T08:41:50.323Z,73.33
2018-11-07T08:44:54.241Z,75.57
2018-11-07T08:47:58.212Z,77.10
2018-11-07T08:51:01.991Z,73.87
2018-11-07T08:54:05.902Z,73.30
2018-11-07T08:57:11.829Z,64.90
2018-11-07T09:00:18.458Z,72.90
2018-11-07T09:03:22.341Z,72.97
2018-11-07T09:06:26.230Z,77.70
2018-11-07T09:09:30.149Z,76.07
2018-11-07T09:12:34.261Z,72.47
2018-11-07T09:15:38.125Z,78.23
2018-11-07T09:18:41.989Z,72.37
2018-11-07T09:21:45.931Z,74.77
2018-11-07T09:24:49.924Z,77.53
2018-11-07T09:27:53.801Z,81.07
2018-11-07T09:30:57.739Z,92.63
2018-11-07T09:34:01.652Z,80.27
2018-11-07T09:37:05.518Z,84.60
2018-11-07T09:40:12.887Z,100.33
2018-11-07T09:43:17.105Z,88.67
2018-11-07T09:46:21.003Z,81.30
2018-11-07T09:49:25.039Z,93.60
2018-11-07T09:52:28.914Z,95.83
2018-11-07T09:55:32.741Z,92.40
2018-11-07T09:58:36.764Z,93.97
2018-11-07T10:01:40.653Z,86.83
2018-11-07T10:04:44.648Z,85.50
2018-11-07T10:07:48.618Z,88.47
2018-11-07T10:10:52.529Z,80.17
2018-11-07T10:13:56.489Z,88.20
2018-11-07T10:17:00.302Z,91.13
2018-11-07T10:20:05.753Z,91.37
2018-11-07T10:23:09.663Z,97.10
2018-11-07T10:26:13.723Z,94.40
2018-11-07T10:29:17.900Z,105.27
2018-11-07T10:32:21.683Z,94.50
2018-11-07T10:35:26.158Z,94.83
2018-11-07T10:38:30.162Z,98.40
2018-11-07T10:41:33.991Z,104.60
2018-11-07T10:44:37.893Z,92.97
2018-11-07T10:47:43.091Z,104.27
2018-11-07T10:50:47.049Z,106.03
2018-11-07T10:53:50.898Z,104.37
2018-11-07T10:56:54.803Z,92.90
2018-11-07T10:59:58.656Z,90.40
2018-11-07T11:03:06.918Z,97.23
2018-11-07T11:06:10.733Z,91.70
2018-11-07T11:09:14.626Z,92.37
2018-11-07T11:12:18.452Z,89.10
2018-11-07T11:15:22.374Z,95.70
2018-11-07T11:18:26.270Z,91.17
2018-11-07T11:21:30.159Z,90.20
2018-11-07T11:24:34.034Z,85.60
2018-11-07T11:27:38.163Z,88.50
2018-11-07T11:30:42.027Z,91.60
2018-11-07T11:33:45.996Z,90.17
2018-11-07T11:36:49.795Z,79.87
2018-11-07T11:39:53.588Z,75.47
2018-11-07T11:42:57.433Z,82.73
2018-11-07T11:46:01.418Z,77.40
2018-11-07T11:49:06.126Z,78.23
2018-11-07T11:52:10.042Z,72.50
2018-11-07T11:55:13.966Z,67.70
2018-11-07T11:58:17.746Z,67.67
2018-11-07T12:01:21.752Z,59.47
2018-11-07T12:04:25.671Z,65.20
2018-11-07T12:07:29.667Z,61.20
2018-11-07T12:10:33.507Z,61.13
2018-11-07T12:13:37.307Z,60.03
2018-11-07T12:16:41.241Z,58.27
2018-11-07T12:19:45.130Z,55.30
2018-11-07T12:22:49.093Z,58.73
2018-11-07T12:25:53.004Z,58.23
2018-11-07T12:28:56.807Z,54.43
2018-11-07T12:32:01.299Z,52.40
2018-11-07T12:35:05.531Z,56.80
2018-11-07T12:38:09.431Z,49.53
2018-11-07T12:41:13.306Z,48.77
2018-11-07T12:44:17.128Z,47.83
2018-11-07T12:47:21.006Z,48.83
2018-11-07T12:50:25.604Z,50.27
2018-11-07T12:53:29.517Z,47.80
2018-11-07T12:56:33.519Z,47.37
2018-11-07T12:59:37.538Z,47.83
2018-11-07T13:02:41.610Z,49.63
2018-11-07T13:05:45.438Z,48.77
2018-11-07T13:08:49.272Z,45.60
2018-11-07T13:11:53.095Z,47.73
2018-11-07T13:14:57.101Z,48.80
2018-11-07T13:18:00.945Z,50.97
2018-11-07T13:21:05.458Z,47.27
2018-11-07T13:24:09.240Z,46.70
2018-11-07T13:27:13.112Z,47.03
2018-11-07T13:30:18.719Z,47.37
2018-11-07T13:33:22.624Z,43.47
2018-11-07T13:36:26.579Z,44.80
2018-11-07T13:39:30.413Z,43.83
2018-11-07T13:42:34.298Z,45.83
2018-11-07T13:45:38.089Z,42.63
2018-11-07T13:48:42.090Z,42.53
2018-11-07T13:51:46.118Z,43.47
2018-11-07T13:54:50.015Z,42.77
2018-11-07T13:57:53.845Z,43.00
2018-11-07T14:00:57.746Z,41.97
2018-11-07T14:04:01.657Z,39.67
2018-11-07T14:07:06.124Z,43.17
2018-11-07T14:10:13.272Z,42.80
2018-11-07T14:13:17.279Z,43.93
2018-11-07T14:16:21.223Z,42.27
2018-11-07T14:19:24.999Z,42.40
2018-11-07T14:22:28.817Z,38.20
2018-11-07T14:25:32.728Z,37.53
2018-11-07T14:28:36.711Z,39.43
2018-11-07T14:31:40.666Z,42.53
2018-11-07T14:34:44.589Z,43.40
2018-11-07T14:37:48.479Z,40.73
2018-11-07T14:40:52.405Z,42.03
2018-11-07T14:43:56.562Z,44.10
2018-11-07T14:47:00.353Z,40.27
2018-11-07T14:50:05.217Z,37.87
2018-11-07T14:53:09.157Z,36.67
2018-11-07T14:56:13.213Z,37.37
2018-11-07T14:59:17.037Z,42.33
2018-11-07T15:02:21.062Z,38.33
2018-11-07T15:05:25.085Z,39.77
2018-11-07T15:08:28.966Z,36.47
2018-11-07T15:11:33.053Z,33.73
2018-11-07T15:14:36.977Z,37.97
2018-11-07T15:17:40.856Z,36.33
2018-11-07T15:20:44.689Z,42.30
2018-11-07T15:23:48.611Z,38.83
2018-11-07T15:26:52.836Z,39.03
2018-11-07T15:29:56.687Z,34.90
2018-11-07T15:33:00.653Z,39.00
2018-11-07T15:36:04.663Z,39.57
2018-11-07T15:39:10.081Z,41.57
2018-11-07T15:42:13.941Z,32.70
2018-11-07T15:45:19.345Z,173.83
2018-11-07T15:48:23.189Z,26.40
2018-11-07T15:51:32.495Z,30.70
2018-11-07T15:54:36.593Z,36.57
2018-11-07T15:57:40.505Z,38.50
2018-11-07T16:00:44.368Z,29.67
2018-11-07T16:03:48.292Z,23.23
2018-11-07T16:06:52.184Z,23.07
2018-11-07T16:09:56.109Z,20.83
2018-11-07T16:13:00.080Z,25.67
2018-11-07T16:16:03.932Z,24.13
2018-11-07T16:19:07.794Z,21.33
2018-11-07T16:22:11.656Z,20.90
2018-11-07T16:25:15.602Z,16.63
2018-11-07T16:28:19.523Z,35.93
2018-11-07T16:31:23.399Z,100.53
2018-11-07T16:34:27.203Z,19.43
2018-11-07T16:37:31.139Z,35.20
2018-11-07T16:40:35.326Z,32.37
2018-11-07T16:43:39.419Z,18.70
2018-11-07T16:46:43.337Z,13.83
2018-11-07T16:49:47.248Z,13.50
2018-11-07T16:52:51.104Z,21.47
2018-11-07T16:55:55.137Z,21.87
2018-11-07T16:58:59.057Z,18.13
2018-11-07T17:02:02.936Z,23.50
2018-11-07T17:05:06.947Z,25.23
2018-11-07T17:08:10.796Z,38.60
2018-11-07T17:11:14.719Z,36.27
2018-11-07T17:14:18.687Z,12.67
2018-11-07T17:17:22.577Z,40.93
2018-11-07T17:20:26.373Z,13.57
2018-11-07T17:23:30.348Z,24.30
2018-11-07T17:26:34.303Z,25.83
2018-11-07T17:29:38.166Z,303.40
2018-11-07T17:32:42.079Z,123.17
2018-11-07T17:35:45.895Z,36.73
2018-11-07T17:38:49.774Z,21.67
2018-11-07T17:41:53.721Z,28.03
2018-11-07T17:44:57.549Z,16.40
2018-11-07T17:48:01.609Z,20.20
2018-11-07T17:51:06.048Z,42.70
2018-11-07T17:54:09.861Z,14.70
2018-11-07T17:57:13.771Z,19.10
2018-11-07T18:00:19.236Z,17.33
2018-11-07T18:03:23.074Z,15.63
2018-11-07T18:06:26.950Z,14.87
2018-11-07T18:09:30.853Z,13.30
2018-11-07T18:12:34.698Z,11.20
2018-11-07T18:15:38.627Z,15.77
2018-11-07T18:18:43.283Z,19.80
2018-11-07T18:21:47.142Z,13.73
2018-11-07T18:24:51.097Z,18.80
2018-11-07T18:27:54.994Z,11.67
2018-11-07T18:30:58.832Z,17.23
2018-11-07T18:34:02.821Z,15.63
2018-11-07T18:37:07.887Z,35.73
2018-11-07T18:40:14.265Z,20.17
2018-11-07T18:43:18.301Z,24.60
2018-11-07T18:46:22.113Z,38.27
2018-11-07T18:49:26.055Z,18.33
2018-11-07T18:52:29.981Z,16.47
2018-11-07T18:55:33.889Z,16.57
2018-11-07T18:58:38.097Z,18.67
2018-11-07T19:01:41.880Z,20.07
2018-11-07T19:04:45.895Z,16.80
2018-11-07T19:07:49.807Z,13.23
2018-11-07T19:10:53.644Z,12.40
2018-11-07T19:13:57.539Z,14.80
2018-11-07T19:17:01.658Z,16.80
2018-11-07T19:20:06.304Z,13.97
2018-11-07T19:23:10.198Z,10.73
2018-11-07T19:26:14.005Z,15.73
2018-11-07T19:29:17.964Z,17.90
2018-11-07T19:32:21.808Z,9.27
2018-11-07T19:35:25.666Z,8.93
2018-11-07T19:38:29.524Z,12.70
2018-11-07T19:41:33.572Z,15.10
2018-11-07T19:44:37.401Z,14.67
2018-11-07T19:47:41.333Z,13.47
2018-11-07T19:50:45.203Z,15.47
2018-11-07T19:53:49.045Z,17.10
2018-11-07T19:56:53.337Z,13.10
2018-11-07T19:59:57.301Z,15.63
2018-11-07T20:03:01.146Z,14.07
2018-11-07T20:06:05.088Z,12.97
2018-11-07T20:09:10.532Z,11.70
2018-11-07T20:12:14.418Z,17.00
2018-11-07T20:15:19.335Z,16.43
2018-11-07T20:18:23.244Z,16.70
2018-11-07T20:21:27.205Z,16.67
2018-11-07T20:24:31.078Z,26.80
2018-11-07T20:27:34.922Z,15.13
2018-11-07T20:30:38.857Z,24.90
2018-11-07T20:33:42.854Z,16.00
2018-11-07T20:36:46.767Z,23.63
2018-11-07T20:39:51.083Z,28.13
2018-11-07T20:42:54.947Z,62.30
2018-11-07T20:45:58.917Z,18.97
2018-11-07T20:49:02.951Z,22.87
2018-11-07T20:52:07.084Z,18.70
2018-11-07T20:55:12.106Z,17.27
2018-11-07T20:58:16.101Z,43.43
2018-11-07T21:01:20.013Z,19.73
2018-11-07T21:04:23.940Z,24.93
2018-11-07T21:07:27.859Z,24.20
2018-11-07T21:10:31.695Z,62.00
2018-11-07T21:13:35.555Z,27.23
2018-11-07T21:16:39.541Z,18.53
2018-11-07T21:19:43.351Z,27.27
2018-11-07T21:22:47.272Z,33.90
2018-11-07T21:25:51.145Z,28.70
2018-11-07T21:28:55.019Z,61.60
2018-11-07T21:31:58.875Z,97.73
2018-11-07T21:35:02.973Z,34.80
2018-11-07T21:38:06.909Z,25.83
2018-11-07T21:41:10.890Z,30.67
2018-11-07T21:44:14.751Z,42.17
2018-11-07T21:47:19.112Z,27.37
2018-11-07T21:50:23.027Z,50.80
2018-11-07T21:53:26.939Z,38.70
2018-11-07T21:56:30.822Z,40.00
2018-11-07T21:59:34.648Z,38.37
2018-11-07T22:02:38.590Z,34.87
2018-11-07T22:05:42.454Z,28.67
2018-11-07T22:08:46.403Z,28.43
2018-11-07T22:11:50.266Z,33.20
2018-11-07T22:14:54.226Z,20.43
2018-11-07T22:17:58.151Z,25.93
2018-11-07T22:21:02.257Z,24.37
2018-11-07T22:24:06.263Z,29.73
2018-11-07T22:27:10.286Z,28.97
2018-11-07T22:30:15.446Z,28.67
2018-11-07T22:33:19.356Z,27.40
2018-11-07T22:36:23.236Z,38.47
2018-11-07T22:39:27.167Z,25.10
2018-11-07T22:42:30.992Z,24.37
2018-11-07T22:45:34.919Z,66.00
2018-11-07T22:48:38.800Z,24.20
2018-11-07T22:51:42.659Z,26.93
2018-11-07T22:54:46.669Z,28.23
2018-11-07T22:57:50.602Z,25.30
2018-11-07T23:00:58.714Z,22.30
2018-11-07T23:04:02.628Z,24.43
2018-11-07T23:07:06.626Z,23.97
2018-11-07T23:10:10.648Z,25.63
2018-11-07T23:13:14.523Z,26.77
2018-11-07T23:16:18.469Z,27.13
2018-11-07T23:19:22.372Z,30.13
2018-11-07T23:22:26.399Z,28.33
2018-11-07T23:25:30.377Z,57.10
2018-11-07T23:28:34.289Z,25.03
2018-11-07T23:31:38.172Z,26.93
2018-11-07T23:34:42.116Z,26.23
2018-11-07T23:37:46.166Z,29.33
2018-11-07T23:40:50.147Z,32.27
2018-11-07T23:43:54.068Z,32.43
2018-11-07T23:46:58.067Z,28.73
2018-11-07T23:50:02.283Z,30.17
2018-11-07T23:53:06.707Z,30.37
2018-11-07T23:56:10.725Z,41.67
2018-11-07T23:59:14.715Z,66.03
